createdAt,value
2023-05-21T00:01:32.245Z,4.50
2023-05-21T00:04:00.727Z,3.50
2023-05-21T00:06:30.401Z,4.17
2023-05-21T00:08:58.225Z,3.43
2023-05-21T00:11:25.993Z,3.73
2023-05-21T00:13:53.695Z,4.03
2023-05-21T00:16:21.574Z,4.17
2023-05-21T00:18:50.358Z,3.67
2023-05-21T00:21:22.672Z,3.93
2023-05-21T00:23:51.868Z,4.00
2023-05-21T00:26:19.679Z,3.20
2023-05-21T00:28:47.380Z,3.20
2023-05-21T00:31:15.976Z,3.63
2023-05-21T00:33:43.707Z,3.47
2023-05-21T00:36:14.290Z,3.93
2023-05-21T00:38:43.626Z,4.00
2023-05-21T00:41:12.795Z,4.10
2023-05-21T00:43:40.741Z,3.93
2023-05-21T00:46:08.759Z,4.00
2023-05-21T00:48:36.560Z,3.70
2023-05-21T00:51:04.474Z,3.53
2023-05-21T00:53:34.943Z,4.23
2023-05-21T00:56:02.842Z,3.60
2023-05-21T00:58:33.608Z,4.17
2023-05-21T01:01:03.648Z,4.03
2023-05-21T01:03:38.671Z,3.97
2023-05-21T01:06:07.205Z,3.93
2023-05-21T01:08:36.292Z,3.87
2023-05-21T01:11:04.970Z,3.67
2023-05-21T01:13:35.724Z,3.73
2023-05-21T01:16:06.552Z,3.63
2023-05-21T01:18:35.599Z,3.87
2023-05-21T01:21:03.396Z,4.03
2023-05-21T01:23:32.797Z,4.30
2023-05-21T01:26:00.558Z,3.53
2023-05-21T01:28:29.760Z,4.50
2023-05-21T01:30:59.100Z,3.87
2023-05-21T01:33:32.594Z,3.63
2023-05-21T01:36:04.228Z,3.80
2023-05-21T01:38:38.828Z,4.00
2023-05-21T01:41:11.049Z,4.07
2023-05-21T01:43:40.702Z,3.63
2023-05-21T01:46:11.161Z,4.13
2023-05-21T01:48:39.824Z,4.03
2023-05-21T01:51:07.672Z,4.10
2023-05-21T01:53:38.801Z,4.00
2023-05-21T01:56:07.654Z,4.13
2023-05-21T01:58:35.458Z,3.97
2023-05-21T02:01:04.583Z,4.30
2023-05-21T02:03:32.555Z,4.50
2023-05-21T02:06:00.377Z,4.00
2023-05-21T02:08:28.356Z,3.67
2023-05-21T02:10:57.482Z,4.03
2023-05-21T02:13:26.532Z,4.50
2023-05-21T02:15:55.359Z,4.20
2023-05-21T02:18:23.413Z,3.90
2023-05-21T02:20:51.156Z,4.27
2023-05-21T02:23:18.976Z,4.27
2023-05-21T02:25:46.696Z,4.47
2023-05-21T02:28:16.040Z,3.83
2023-05-21T02:30:43.789Z,4.63
2023-05-21T02:33:14.460Z,4.73
2023-05-21T02:35:42.244Z,4.23
2023-05-21T02:38:10.546Z,4.30
2023-05-21T02:40:38.259Z,4.80
2023-05-21T02:43:06.049Z,4.73
2023-05-21T02:45:35.493Z,3.90
2023-05-21T02:48:03.535Z,4.87
2023-05-21T02:50:31.325Z,4.90
2023-05-21T02:52:59.690Z,5.00
2023-05-21T02:55:27.455Z,4.80
2023-05-21T02:57:55.173Z,4.93
2023-05-21T03:00:22.889Z,4.80
2023-05-21T03:02:52.086Z,5.00
2023-05-21T03:05:19.956Z,4.60
2023-05-21T03:07:47.669Z,5.20
2023-05-21T03:10:15.583Z,5.47
2023-05-21T03:12:43.358Z,5.00
2023-05-21T03:15:14.811Z,5.27
2023-05-21T03:17:44.592Z,4.97
2023-05-21T03:20:16.574Z,5.83
2023-05-21T03:22:44.618Z,5.67
2023-05-21T03:25:12.717Z,5.53
2023-05-21T03:27:41.082Z,5.33
2023-05-21T03:30:09.699Z,5.93
2023-05-21T03:32:38.792Z,5.10
2023-05-21T03:35:07.327Z,4.57
2023-05-21T03:37:36.424Z,5.93
2023-05-21T03:40:04.838Z,5.97
2023-05-21T03:42:32.555Z,5.07
2023-05-21T03:45:00.392Z,5.47
2023-05-21T03:47:28.144Z,4.67
2023-05-21T03:49:56.026Z,5.17
2023-05-21T03:52:23.753Z,5.63
2023-05-21T03:54:53.272Z,5.20
2023-05-21T03:57:21.018Z,5.70
2023-05-21T03:59:48.776Z,5.67
2023-05-21T04:02:16.743Z,5.63
2023-05-21T04:04:45.502Z,6.10
2023-05-21T04:07:15.298Z,5.47
2023-05-21T04:09:43.282Z,5.40
2023-05-21T04:12:12.363Z,5.63
2023-05-21T04:14:40.319Z,5.83
2023-05-21T04:17:09.022Z,6.13
2023-05-21T04:19:36.893Z,6.20
2023-05-21T04:22:04.958Z,5.73
2023-05-21T04:24:32.745Z,5.27
2023-05-21T04:27:01.631Z,5.40
2023-05-21T04:29:31.446Z,5.93
2023-05-21T04:31:59.193Z,5.60
2023-05-21T04:34:26.915Z,6.27
2023-05-21T04:36:54.652Z,5.67
2023-05-21T04:39:22.352Z,5.80
2023-05-21T04:41:50.797Z,5.83
2023-05-21T04:44:18.564Z,6.03
2023-05-21T04:46:49.032Z,5.50
2023-05-21T04:49:16.906Z,6.80
2023-05-21T04:51:44.708Z,5.43
2023-05-21T04:54:12.510Z,6.13
2023-05-21T04:56:40.215Z,5.27
2023-05-21T04:59:07.922Z,6.50
2023-05-21T05:01:35.856Z,5.67
2023-05-21T05:04:05.385Z,4.77
2023-05-21T05:06:33.161Z,6.13
2023-05-21T05:09:00.890Z,5.43
2023-05-21T05:11:28.624Z,5.97
2023-05-21T05:13:56.298Z,5.83
2023-05-21T05:16:25.672Z,5.50
2023-05-21T05:18:53.652Z,5.87
2023-05-21T05:21:23.630Z,5.70
2023-05-21T05:23:51.349Z,5.80
2023-05-21T05:26:19.150Z,6.13
2023-05-21T05:28:46.917Z,5.50
2023-05-21T05:31:14.935Z,5.23
2023-05-21T05:33:42.753Z,6.23
2023-05-21T05:36:11.617Z,5.77
2023-05-21T05:38:41.074Z,5.63
2023-05-21T05:41:08.917Z,5.30
2023-05-21T05:43:36.599Z,5.80
2023-05-21T05:46:04.476Z,6.10
2023-05-21T05:48:32.397Z,5.60
2023-05-21T05:51:00.112Z,6.10
2023-05-21T05:53:27.852Z,5.70
2023-05-21T05:55:56.933Z,4.90
2023-05-21T05:58:24.646Z,5.60
2023-05-21T06:00:52.514Z,5.50
2023-05-21T06:03:20.370Z,5.87
2023-05-21T06:05:48.358Z,5.10
2023-05-21T06:08:16.654Z,5.90
2023-05-21T06:10:44.355Z,4.90
2023-05-21T06:13:13.450Z,5.30
2023-05-21T06:15:43.186Z,5.50
2023-05-21T06:18:11.502Z,6.23
2023-05-21T06:20:39.517Z,5.90
2023-05-21T06:23:08.804Z,5.70
2023-05-21T06:25:36.833Z,5.93
2023-05-21T06:28:04.984Z,4.87
2023-05-21T06:30:34.117Z,5.00
2023-05-21T06:33:01.954Z,5.67
2023-05-21T06:35:29.720Z,5.00
2023-05-21T06:37:57.468Z,5.23
2023-05-21T06:40:25.192Z,5.83
2023-05-21T06:42:52.935Z,5.93
2023-05-21T06:45:20.930Z,5.83
2023-05-21T06:47:50.071Z,5.23
2023-05-21T06:50:17.850Z,5.30
2023-05-21T06:52:45.608Z,5.33
2023-05-21T06:55:13.313Z,5.90
2023-05-21T06:57:41.069Z,5.73
2023-05-21T07:00:10.150Z,6.00
2023-05-21T07:02:37.969Z,5.80
2023-05-21T07:05:07.647Z,7.23
2023-05-21T07:07:35.812Z,6.17
2023-05-21T07:10:03.687Z,5.40
2023-05-21T07:12:31.457Z,4.90
2023-05-21T07:14:59.467Z,5.50
2023-05-21T07:17:27.268Z,5.17
2023-05-21T07:19:55.044Z,5.37
2023-05-21T07:22:25.561Z,5.37
2023-05-21T07:24:55.098Z,5.67
2023-05-21T07:27:25.846Z,6.60
2023-05-21T07:29:54.056Z,5.50
2023-05-21T07:32:21.830Z,5.40
2023-05-21T07:34:49.899Z,5.07
2023-05-21T07:37:18.836Z,5.50
2023-05-21T07:39:48.186Z,6.00
2023-05-21T07:42:16.058Z,5.53
2023-05-21T07:44:43.785Z,5.27
2023-05-21T07:47:11.466Z,5.50
2023-05-21T07:49:39.199Z,5.57
2023-05-21T07:52:07.712Z,5.50
2023-05-21T07:54:35.902Z,5.30
2023-05-21T07:57:05.434Z,5.60
2023-05-21T07:59:33.672Z,5.90
2023-05-21T08:02:01.514Z,5.53
2023-05-21T08:04:29.469Z,5.57
2023-05-21T08:06:57.572Z,6.03
2023-05-21T08:09:25.569Z,6.80
2023-05-21T08:11:53.336Z,5.93
2023-05-21T08:14:22.447Z,5.50
2023-05-21T08:16:50.252Z,4.97
2023-05-21T08:19:18.097Z,5.93
2023-05-21T08:21:46.160Z,6.00
2023-05-21T08:24:13.920Z,5.83
2023-05-21T08:26:41.686Z,6.60
2023-05-21T08:29:09.412Z,5.90
2023-05-21T08:31:40.336Z,5.77
2023-05-21T08:34:08.118Z,6.40
2023-05-21T08:36:36.121Z,6.33
2023-05-21T08:39:03.805Z,6.13
2023-05-21T08:41:32.545Z,6.63
2023-05-21T08:44:02.646Z,6.07
2023-05-21T08:46:33.879Z,6.03
2023-05-21T08:49:03.684Z,6.20
2023-05-21T08:51:32.059Z,6.17
2023-05-21T08:54:01.184Z,7.80
2023-05-21T08:56:28.995Z,6.07
2023-05-21T08:58:56.937Z,6.30
2023-05-21T09:01:26.640Z,5.80
2023-05-21T09:04:04.886Z,6.53
2023-05-21T09:06:42.001Z,7.40
2023-05-21T09:09:15.798Z,7.00
2023-05-21T09:11:43.788Z,6.60
2023-05-21T09:14:12.706Z,6.70
2023-05-21T09:16:40.573Z,7.03
2023-05-21T09:19:08.358Z,6.90
2023-05-21T09:21:37.127Z,7.03
2023-05-21T09:24:07.109Z,7.70
2023-05-21T09:26:35.176Z,7.67
2023-05-21T09:29:02.927Z,6.87
2023-05-21T09:31:30.887Z,8.03
2023-05-21T09:33:58.846Z,8.93
2023-05-21T09:36:26.610Z,8.17
2023-05-21T09:38:54.385Z,7.67
2023-05-21T09:41:32.541Z,8.00
2023-05-21T09:44:01.276Z,8.23
2023-05-21T09:46:29.392Z,8.40
2023-05-21T09:48:57.106Z,7.43
2023-05-21T09:51:24.842Z,9.77
2023-05-21T09:53:54.120Z,9.07
2023-05-21T09:56:24.763Z,7.60
2023-05-21T09:58:54.673Z,9.57
2023-05-21T10:01:22.524Z,8.77
2023-05-21T10:03:53.558Z,8.87
2023-05-21T10:06:21.988Z,9.20
2023-05-21T10:08:53.538Z,10.40
2023-05-21T10:11:24.752Z,8.70
2023-05-21T10:13:53.734Z,8.90
2023-05-21T10:16:21.638Z,10.37
2023-05-21T10:18:49.776Z,9.33
2023-05-21T10:21:17.787Z,9.83
2023-05-21T10:23:46.215Z,9.47
2023-05-21T10:26:14.179Z,10.27
2023-05-21T10:28:43.410Z,9.27
2023-05-21T10:31:11.494Z,10.47
2023-05-21T10:33:39.684Z,11.23
2023-05-21T10:36:07.684Z,10.67
2023-05-21T10:38:35.582Z,10.73
2023-05-21T10:41:04.873Z,11.20
2023-05-21T10:43:54.295Z,10.83
2023-05-21T10:46:38.760Z,12.47
2023-05-21T10:49:25.425Z,12.00
2023-05-21T10:52:00.753Z,12.23
2023-05-21T10:54:54.415Z,10.83
2023-05-21T10:57:35.645Z,11.77
2023-05-21T11:00:06.009Z,11.47
2023-05-21T11:02:35.428Z,12.27
2023-05-21T11:05:04.179Z,11.53
2023-05-21T11:07:58.708Z,11.83
2023-05-21T11:10:33.863Z,12.20
2023-05-21T11:13:15.419Z,11.30
2023-05-21T11:16:08.386Z,12.47
2023-05-21T11:18:59.579Z,12.63
2023-05-21T11:21:31.245Z,12.20
2023-05-21T11:24:03.683Z,12.60
2023-05-21T11:27:02.390Z,12.67
2023-05-21T11:29:44.390Z,10.70
2023-05-21T11:32:13.572Z,11.73
2023-05-21T11:34:44.112Z,11.33
2023-05-21T11:37:26.848Z,12.13
2023-05-21T11:39:55.438Z,13.13
2023-05-21T11:42:33.979Z,12.53
2023-05-21T11:45:02.742Z,11.13
2023-05-21T11:47:32.110Z,11.40
2023-05-21T11:50:02.255Z,12.37
2023-05-21T11:52:30.481Z,11.70
2023-05-21T11:54:59.902Z,12.00
2023-05-21T11:57:30.933Z,12.13
2023-05-21T11:59:59.697Z,11.60
2023-05-21T12:02:28.741Z,11.77
2023-05-21T12:04:59.968Z,12.53
2023-05-21T12:07:31.292Z,12.10
2023-05-21T12:09:59.563Z,11.57
2023-05-21T12:12:38.547Z,11.63
2023-05-21T12:15:15.034Z,12.27
2023-05-21T12:17:42.800Z,11.37
2023-05-21T12:20:11.445Z,12.50
2023-05-21T12:22:44.188Z,11.73
2023-05-21T12:25:13.083Z,12.60
2023-05-21T12:27:42.089Z,12.23
2023-05-21T12:30:10.918Z,12.77
2023-05-21T12:32:44.085Z,12.57
2023-05-21T12:35:22.144Z,12.30
2023-05-21T12:37:51.823Z,12.40
2023-05-21T12:40:19.950Z,13.63
2023-05-21T12:42:47.741Z,12.23
2023-05-21T12:45:18.394Z,12.20
2023-05-21T12:47:49.944Z,12.30
2023-05-21T12:50:21.491Z,12.83
2023-05-21T12:52:49.684Z,12.67
2023-05-21T12:55:19.430Z,13.13
2023-05-21T12:57:47.207Z,11.43
2023-05-21T13:00:15.070Z,13.27
2023-05-21T13:02:45.418Z,13.53
2023-05-21T13:05:18.364Z,12.93
2023-05-21T13:07:47.891Z,13.33
2023-05-21T13:10:16.600Z,13.60
2023-05-21T13:12:46.053Z,12.07
2023-05-21T13:15:14.100Z,14.50
2023-05-21T13:17:41.912Z,12.60
2023-05-21T13:20:12.258Z,14.13
2023-05-21T13:22:42.580Z,13.40
2023-05-21T13:25:11.471Z,14.37
2023-05-21T13:27:39.407Z,13.87
2023-05-21T13:30:11.337Z,13.00
2023-05-21T13:32:39.754Z,13.60
2023-05-21T13:35:08.190Z,13.43
2023-05-21T13:37:36.797Z,13.23
2023-05-21T13:40:04.993Z,12.60
2023-05-21T13:42:32.787Z,13.03
2023-05-21T13:45:00.567Z,12.33
2023-05-21T13:47:29.674Z,13.63
2023-05-21T13:49:57.412Z,12.67
2023-05-21T13:52:25.164Z,13.13
2023-05-21T13:54:53.058Z,12.30
2023-05-21T13:57:20.835Z,12.70
2023-05-21T13:59:50.558Z,12.87
2023-05-21T14:02:18.391Z,11.57
2023-05-21T14:04:47.569Z,14.20
2023-05-21T14:07:15.422Z,13.53
2023-05-21T14:09:43.382Z,12.80
2023-05-21T14:12:11.860Z,13.07
2023-05-21T14:14:39.554Z,12.57
2023-05-21T14:17:07.476Z,13.67
2023-05-21T14:19:35.404Z,12.83
2023-05-21T14:22:04.594Z,12.83
2023-05-21T14:24:32.458Z,13.10
2023-05-21T14:27:00.198Z,12.60
2023-05-21T14:29:27.967Z,14.27
2023-05-21T14:31:55.729Z,12.97
2023-05-21T14:34:23.504Z,12.53
2023-05-21T14:36:51.207Z,12.83
2023-05-21T14:39:20.329Z,12.87
2023-05-21T14:41:48.032Z,13.03
2023-05-21T14:44:16.245Z,12.90
2023-05-21T14:46:44.115Z,12.57
2023-05-21T14:49:12.265Z,13.07
2023-05-21T14:51:40.721Z,12.53
2023-05-21T14:54:08.450Z,13.73
2023-05-21T14:56:37.717Z,12.87
2023-05-21T14:59:05.485Z,13.07
2023-05-21T15:01:33.268Z,12.70
2023-05-21T15:04:02.805Z,11.93
2023-05-21T15:06:30.690Z,13.37
2023-05-21T15:08:58.476Z,12.27
2023-05-21T15:11:26.256Z,13.10
2023-05-21T15:13:55.385Z,12.70
2023-05-21T15:16:23.214Z,13.37
2023-05-21T15:18:51.275Z,13.77
2023-05-21T15:21:19.049Z,13.13
2023-05-21T15:23:46.767Z,12.47
2023-05-21T15:26:14.507Z,12.70
2023-05-21T15:28:42.206Z,13.37
2023-05-21T15:31:12.388Z,13.43
2023-05-21T15:33:40.128Z,11.20
2023-05-21T15:36:08.587Z,11.13
2023-05-21T15:38:36.341Z,12.37
2023-05-21T15:41:04.139Z,11.70
2023-05-21T15:43:32.013Z,11.00
2023-05-21T15:45:59.798Z,12.10
2023-05-21T15:48:28.839Z,11.37
2023-05-21T15:50:56.529Z,11.00
2023-05-21T15:53:24.249Z,10.43
2023-05-21T15:55:52.013Z,11.93
2023-05-21T15:58:19.702Z,10.77
2023-05-21T16:00:47.451Z,12.73
2023-05-21T16:03:15.305Z,11.27
2023-05-21T16:05:44.439Z,11.80
2023-05-21T16:08:12.197Z,9.23
2023-05-21T16:10:40.029Z,10.73
2023-05-21T16:13:07.866Z,11.97
2023-05-21T16:15:35.868Z,11.60
2023-05-21T16:18:03.912Z,11.20
2023-05-21T16:20:32.395Z,11.13
2023-05-21T16:23:01.471Z,11.60
2023-05-21T16:25:29.200Z,12.10
2023-05-21T16:27:56.968Z,11.80
2023-05-21T16:30:24.733Z,12.50
2023-05-21T16:32:52.530Z,12.07
2023-05-21T16:35:20.576Z,11.07
2023-05-21T16:37:48.305Z,11.57
2023-05-21T16:40:17.542Z,11.43
2023-05-21T16:42:45.350Z,11.77
2023-05-21T16:45:19.430Z,11.57
2023-05-21T16:47:47.600Z,11.53
2023-05-21T16:50:15.371Z,12.20
2023-05-21T16:52:43.130Z,12.00
2023-05-21T16:55:11.240Z,12.10
2023-05-21T16:57:40.407Z,12.20
2023-05-21T17:00:09.313Z,11.93
2023-05-21T17:02:37.122Z,12.20
2023-05-21T17:05:05.481Z,13.23
2023-05-21T17:07:33.252Z,12.60
2023-05-21T17:10:00.938Z,12.27
2023-05-21T17:12:28.630Z,12.53
2023-05-21T17:14:57.769Z,13.33
2023-05-21T17:17:25.973Z,13.17
2023-05-21T17:19:53.882Z,12.80
2023-05-21T17:22:21.913Z,12.13
2023-05-21T17:24:49.673Z,11.97
2023-05-21T17:27:17.544Z,12.53
2023-05-21T17:29:45.383Z,12.97
2023-05-21T17:32:14.492Z,12.77
2023-05-21T17:34:42.202Z,12.13
2023-05-21T17:37:09.964Z,12.63
2023-05-21T17:39:37.806Z,13.07
2023-05-21T17:42:06.154Z,11.97
2023-05-21T17:44:33.875Z,12.27
2023-05-21T17:47:02.063Z,12.90
2023-05-21T17:49:31.568Z,12.33
2023-05-21T17:52:00.235Z,12.60
2023-05-21T17:54:27.980Z,12.13
2023-05-21T17:56:55.679Z,12.13
2023-05-21T17:59:23.378Z,12.60
2023-05-21T18:01:51.206Z,11.53
2023-05-21T18:04:19.513Z,12.23
2023-05-21T18:06:48.700Z,12.27
2023-05-21T18:09:16.572Z,11.83
2023-05-21T18:11:44.753Z,12.63
2023-05-21T18:14:12.698Z,12.43
2023-05-21T18:16:41.151Z,12.30
2023-05-21T18:19:09.098Z,11.20
2023-05-21T18:21:37.136Z,12.27
2023-05-21T18:24:07.393Z,12.47
2023-05-21T18:26:35.120Z,11.60
2023-05-21T18:29:02.909Z,11.23
2023-05-21T18:31:30.774Z,11.73
2023-05-21T18:33:58.506Z,12.23
2023-05-21T18:36:26.640Z,12.17
2023-05-21T18:38:54.393Z,11.20
2023-05-21T18:41:23.981Z,11.60
2023-05-21T18:43:51.710Z,12.17
2023-05-21T18:46:19.903Z,11.90
2023-05-21T18:48:48.621Z,12.30
2023-05-21T18:51:16.355Z,11.83
2023-05-21T18:53:44.121Z,11.67
2023-05-21T18:56:11.844Z,11.57
2023-05-21T18:58:40.903Z,11.60
2023-05-21T19:01:09.082Z,11.53
2023-05-21T19:03:36.832Z,13.37
2023-05-21T19:06:04.807Z,14.10
2023-05-21T19:08:32.684Z,14.27
2023-05-21T19:11:00.461Z,14.57
2023-05-21T19:13:28.182Z,14.63
2023-05-21T19:15:58.656Z,14.23
2023-05-21T19:18:30.422Z,14.87
2023-05-21T19:21:00.150Z,15.50
2023-05-21T19:23:28.325Z,16.20
2023-05-21T19:25:56.235Z,16.67
2023-05-21T19:28:24.005Z,17.03
2023-05-21T19:30:51.726Z,16.47
2023-05-21T19:33:20.919Z,14.73
2023-05-21T19:35:50.934Z,17.10
2023-05-21T19:38:18.658Z,17.17
2023-05-21T19:40:46.427Z,16.77
2023-05-21T19:43:14.096Z,17.50
2023-05-21T19:45:41.943Z,17.03
2023-05-21T19:48:09.796Z,17.57
2023-05-21T19:50:39.101Z,17.70
2023-05-21T19:53:07.330Z,16.80
2023-05-21T19:55:37.366Z,18.20
2023-05-21T19:58:05.208Z,17.27
2023-05-21T20:00:33.285Z,18.03
2023-05-21T20:03:01.296Z,18.33
2023-05-21T20:05:29.093Z,17.63
2023-05-21T20:07:58.480Z,17.17
2023-05-21T20:10:28.073Z,19.07
2023-05-21T20:12:55.852Z,17.00
2023-05-21T20:15:23.586Z,18.83
2023-05-21T20:17:51.429Z,18.80
2023-05-21T20:20:22.799Z,20.10
2023-05-21T20:22:50.634Z,19.23
2023-05-21T20:25:19.715Z,18.90
2023-05-21T20:27:47.605Z,18.13
2023-05-21T20:30:15.606Z,18.13
2023-05-21T20:32:43.357Z,20.20
2023-05-21T20:35:11.210Z,20.30
2023-05-21T20:37:38.878Z,20.87
2023-05-21T20:40:07.968Z,20.60
2023-05-21T20:42:37.117Z,19.80
2023-05-21T20:45:05.657Z,20.10
2023-05-21T20:47:33.927Z,20.13
2023-05-21T20:50:02.786Z,20.13
2023-05-21T20:52:30.530Z,19.30
2023-05-21T20:55:01.022Z,18.50
2023-05-21T20:57:30.068Z,21.17
2023-05-21T20:59:59.162Z,20.80
2023-05-21T21:02:26.975Z,21.10
2023-05-21T21:04:55.022Z,20.93
2023-05-21T21:07:23.239Z,21.17
2023-05-21T21:09:50.982Z,20.93
2023-05-21T21:12:25.321Z,20.50
2023-05-21T21:14:54.581Z,21.47
2023-05-21T21:17:24.241Z,22.60
2023-05-21T21:19:51.988Z,20.83
2023-05-21T21:22:19.745Z,22.43
2023-05-21T21:24:48.204Z,22.70
2023-05-21T21:27:15.978Z,21.47
2023-05-21T21:29:44.179Z,23.33
2023-05-21T21:32:11.938Z,22.87
2023-05-21T21:34:41.166Z,22.00
2023-05-21T21:37:08.908Z,23.20
2023-05-21T21:39:36.641Z,23.37
2023-05-21T21:42:04.514Z,23.33
2023-05-21T21:44:32.198Z,23.63
2023-05-21T21:46:59.938Z,23.60
2023-05-21T21:49:27.641Z,21.87
2023-05-21T21:51:57.812Z,22.53
2023-05-21T21:54:25.618Z,22.33
2023-05-21T21:56:53.373Z,21.83
2023-05-21T21:59:22.303Z,18.17
2023-05-21T22:01:50.239Z,17.23
2023-05-21T22:04:18.034Z,13.87
2023-05-21T22:06:46.775Z,12.63
2023-05-21T22:09:16.930Z,12.00
2023-05-21T22:11:44.683Z,11.30
2023-05-21T22:14:12.410Z,10.43
2023-05-21T22:16:41.567Z,10.27
2023-05-21T22:19:10.084Z,10.50
2023-05-21T22:21:38.018Z,10.93
2023-05-21T22:24:06.082Z,11.07
2023-05-21T22:26:35.285Z,10.73
2023-05-21T22:29:02.993Z,11.33
2023-05-21T22:31:31.007Z,11.10
2023-05-21T22:33:58.828Z,10.93
2023-05-21T22:36:26.588Z,12.13
2023-05-21T22:38:54.387Z,12.63
2023-05-21T22:41:22.822Z,12.87
2023-05-21T22:43:52.236Z,12.37
2023-05-21T22:46:20.025Z,12.60
2023-05-21T22:48:48.247Z,12.70
2023-05-21T22:51:15.962Z,13.53
2023-05-21T22:53:43.831Z,12.27
2023-05-21T22:56:11.570Z,12.23
2023-05-21T22:58:39.289Z,12.27
2023-05-21T23:01:08.466Z,13.27
2023-05-21T23:03:36.189Z,12.80
2023-05-21T23:06:03.888Z,13.40
2023-05-21T23:08:31.636Z,14.20
2023-05-21T23:10:59.329Z,14.33
2023-05-21T23:13:27.095Z,14.93
2023-05-21T23:15:58.656Z,15.50
2023-05-21T23:18:27.783Z,15.33
2023-05-21T23:20:55.881Z,15.70
2023-05-21T23:23:23.616Z,16.07
2023-05-21T23:25:53.000Z,15.77
2023-05-21T23:28:20.734Z,16.50
2023-05-21T23:30:48.484Z,17.83
2023-05-21T23:33:16.554Z,15.43
2023-05-21T23:35:45.748Z,15.60
2023-05-21T23:38:13.537Z,16.13
2023-05-21T23:40:41.321Z,16.17
2023-05-21T23:43:09.107Z,15.30
2023-05-21T23:45:37.084Z,16.10
2023-05-21T23:48:05.308Z,16.27
2023-05-21T23:50:33.192Z,16.87
2023-05-21T23:53:02.318Z,16.43
2023-05-21T23:55:30.077Z,16.77
2023-05-21T23:57:57.814Z,16.47
